sensor_id;sensor_type;location;lat;lon;timestamp;P1;durP1;ratioP1;P2;durP2;ratioP2
3006;SDS011;1513;47.650;10.720;2023-07-28T00:02:17;5.43;;;2.60;;
3006;SDS011;1513;47.650;10.720;2023-07-28T00:04:43;4.13;;;2.30;;
3006;SDS011;1513;47.650;10.720;2023-07-28T00:07:09;3.07;;;2.00;;
3006;SDS011;1513;47.650;10.720;2023-07-28T00:09:36;3.60;;;2.10;;
3006;SDS011;1513;47.650;10.720;2023-07-28T00:12:02;2.53;;;2.00;;
3006;SDS011;1513;47.650;10.720;2023-07-28T00:14:29;2.07;;;1.87;;
3006;SDS011;1513;47.650;10.720;2023-07-28T00:16:55;3.10;;;2.30;;
3006;SDS011;1513;47.650;10.720;2023-07-28T00:19:23;2.50;;;1.97;;
3006;SDS011;1513;47.650;10.720;2023-07-28T00:21:49;2.87;;;2.03;;
3006;SDS011;1513;47.650;10.720;2023-07-28T00:24:16;2.10;;;1.83;;
3006;SDS011;1513;47.650;10.720;2023-07-28T00:26:43;2.00;;;1.80;;
3006;SDS011;1513;47.650;10.720;2023-07-28T00:29:10;3.00;;;2.23;;
3006;SDS011;1513;47.650;10.720;2023-07-28T00:31:36;3.27;;;1.93;;
3006;SDS011;1513;47.650;10.720;2023-07-28T00:34:03;2.90;;;2.60;;
3006;SDS011;1513;47.650;10.720;2023-07-28T00:36:30;1.87;;;1.77;;
3006;SDS011;1513;47.650;10.720;2023-07-28T00:38:57;3.77;;;2.47;;
3006;SDS011;1513;47.650;10.720;2023-07-28T00:41:23;2.57;;;2.37;;
3006;SDS011;1513;47.650;10.720;2023-07-28T00:43:49;2.50;;;2.07;;
3006;SDS011;1513;47.650;10.720;2023-07-28T00:46:16;3.13;;;2.20;;
3006;SDS011;1513;47.650;10.720;2023-07-28T00:48:43;6.50;;;2.77;;
3006;SDS011;1513;47.650;10.720;2023-07-28T00:51:10;3.13;;;2.57;;
3006;SDS011;1513;47.650;10.720;2023-07-28T00:53:36;4.10;;;2.73;;
3006;SDS011;1513;47.650;10.720;2023-07-28T00:56:03;4.27;;;2.20;;
3006;SDS011;1513;47.650;10.720;2023-07-28T00:58:30;3.13;;;2.23;;
3006;SDS011;1513;47.650;10.720;2023-07-28T01:00:57;2.93;;;2.63;;
3006;SDS011;1513;47.650;10.720;2023-07-28T01:03:24;3.60;;;2.23;;
3006;SDS011;1513;47.650;10.720;2023-07-28T01:06:10;5.03;;;2.40;;
3006;SDS011;1513;47.650;10.720;2023-07-28T01:08:47;4.40;;;2.10;;
3006;SDS011;1513;47.650;10.720;2023-07-28T01:11:23;4.17;;;3.10;;
3006;SDS011;1513;47.650;10.720;2023-07-28T01:13:49;5.40;;;3.00;;
3006;SDS011;1513;47.650;10.720;2023-07-28T01:16:15;4.27;;;3.13;;
3006;SDS011;1513;47.650;10.720;2023-07-28T01:18:42;5.43;;;3.43;;
3006;SDS011;1513;47.650;10.720;2023-07-28T01:21:09;6.97;;;3.90;;
3006;SDS011;1513;47.650;10.720;2023-07-28T01:23:44;5.70;;;3.50;;
3006;SDS011;1513;47.650;10.720;2023-07-28T01:26:37;5.93;;;3.67;;
3006;SDS011;1513;47.650;10.720;2023-07-28T01:29:05;6.73;;;3.43;;
3006;SDS011;1513;47.650;10.720;2023-07-28T01:31:32;5.83;;;3.50;;
3006;SDS011;1513;47.650;10.720;2023-07-28T01:33:58;6.03;;;3.70;;
3006;SDS011;1513;47.650;10.720;2023-07-28T01:36:24;5.63;;;3.50;;
3006;SDS011;1513;47.650;10.720;2023-07-28T01:38:51;3.93;;;3.10;;
3006;SDS011;1513;47.650;10.720;2023-07-28T01:41:17;7.07;;;3.10;;
3006;SDS011;1513;47.650;10.720;2023-07-28T01:43:43;5.87;;;3.10;;
3006;SDS011;1513;47.650;10.720;2023-07-28T01:46:10;4.93;;;3.13;;
3006;SDS011;1513;47.650;10.720;2023-07-28T01:48:36;5.20;;;2.93;;
3006;SDS011;1513;47.650;10.720;2023-07-28T01:51:03;3.37;;;2.50;;
3006;SDS011;1513;47.650;10.720;2023-07-28T01:53:29;3.53;;;2.50;;
3006;SDS011;1513;47.650;10.720;2023-07-28T01:55:55;4.73;;;2.60;;
3006;SDS011;1513;47.650;10.720;2023-07-28T01:58:22;5.67;;;2.43;;
3006;SDS011;1513;47.650;10.720;2023-07-28T02:00:48;3.47;;;2.73;;
3006;SDS011;1513;47.650;10.720;2023-07-28T02:03:15;7.07;;;2.70;;
3006;SDS011;1513;47.650;10.720;2023-07-28T02:05:41;2.97;;;2.57;;
3006;SDS011;1513;47.650;10.720;2023-07-28T02:08:07;3.40;;;2.40;;
3006;SDS011;1513;47.650;10.720;2023-07-28T02:10:34;4.13;;;2.60;;
3006;SDS011;1513;47.650;10.720;2023-07-28T02:13:00;6.57;;;2.70;;
3006;SDS011;1513;47.650;10.720;2023-07-28T02:15:26;4.60;;;2.70;;
3006;SDS011;1513;47.650;10.720;2023-07-28T02:17:52;3.10;;;2.73;;
3006;SDS011;1513;47.650;10.720;2023-07-28T02:20:19;8.50;;;2.73;;
3006;SDS011;1513;47.650;10.720;2023-07-28T02:22:45;6.00;;;2.90;;
3006;SDS011;1513;47.650;10.720;2023-07-28T02:25:12;5.27;;;2.80;;
3006;SDS011;1513;47.650;10.720;2023-07-28T02:27:38;5.70;;;3.00;;
3006;SDS011;1513;47.650;10.720;2023-07-28T02:30:05;4.27;;;3.30;;
3006;SDS011;1513;47.650;10.720;2023-07-28T02:32:32;4.37;;;3.33;;
3006;SDS011;1513;47.650;10.720;2023-07-28T02:34:58;3.40;;;2.77;;
3006;SDS011;1513;47.650;10.720;2023-07-28T02:37:25;4.80;;;3.30;;
3006;SDS011;1513;47.650;10.720;2023-07-28T02:39:51;5.10;;;3.10;;
3006;SDS011;1513;47.650;10.720;2023-07-28T02:42:17;3.33;;;3.00;;
3006;SDS011;1513;47.650;10.720;2023-07-28T02:44:44;4.20;;;2.90;;
3006;SDS011;1513;47.650;10.720;2023-07-28T02:47:10;5.50;;;3.07;;
3006;SDS011;1513;47.650;10.720;2023-07-28T02:49:36;2.20;;;2.00;;
3006;SDS011;1513;47.650;10.720;2023-07-28T02:52:03;3.10;;;2.27;;
3006;SDS011;1513;47.650;10.720;2023-07-28T02:54:29;5.83;;;2.90;;
3006;SDS011;1513;47.650;10.720;2023-07-28T02:56:56;2.50;;;2.13;;
3006;SDS011;1513;47.650;10.720;2023-07-28T02:59:22;5.77;;;2.50;;
3006;SDS011;1513;47.650;10.720;2023-07-28T03:01:49;2.40;;;2.10;;
3006;SDS011;1513;47.650;10.720;2023-07-28T03:04:17;6.53;;;2.43;;
3006;SDS011;1513;47.650;10.720;2023-07-28T03:07:05;3.50;;;2.30;;
3006;SDS011;1513;47.650;10.720;2023-07-28T03:09:34;2.93;;;2.53;;
3006;SDS011;1513;47.650;10.720;2023-07-28T03:12:01;5.67;;;3.60;;
3006;SDS011;1513;47.650;10.720;2023-07-28T03:14:28;5.77;;;3.70;;
3006;SDS011;1513;47.650;10.720;2023-07-28T03:16:55;3.30;;;3.00;;
3006;SDS011;1513;47.650;10.720;2023-07-28T03:19:21;4.60;;;3.20;;
3006;SDS011;1513;47.650;10.720;2023-07-28T03:21:47;3.77;;;2.97;;
3006;SDS011;1513;47.650;10.720;2023-07-28T03:24:14;4.83;;;2.57;;
3006;SDS011;1513;47.650;10.720;2023-07-28T03:26:40;4.03;;;1.90;;
3006;SDS011;1513;47.650;10.720;2023-07-28T03:29:06;3.47;;;2.23;;
3006;SDS011;1513;47.650;10.720;2023-07-28T03:31:33;4.43;;;1.73;;
3006;SDS011;1513;47.650;10.720;2023-07-28T03:34:02;3.03;;;2.50;;
3006;SDS011;1513;47.650;10.720;2023-07-28T03:36:29;3.93;;;2.80;;
3006;SDS011;1513;47.650;10.720;2023-07-28T03:38:55;2.73;;;2.53;;
3006;SDS011;1513;47.650;10.720;2023-07-28T03:41:22;2.37;;;2.17;;
3006;SDS011;1513;47.650;10.720;2023-07-28T03:43:48;3.90;;;2.80;;
3006;SDS011;1513;47.650;10.720;2023-07-28T03:46:15;2.87;;;2.23;;
3006;SDS011;1513;47.650;10.720;2023-07-28T03:48:41;2.70;;;2.20;;
3006;SDS011;1513;47.650;10.720;2023-07-28T03:51:07;2.63;;;2.00;;
3006;SDS011;1513;47.650;10.720;2023-07-28T03:53:34;3.03;;;2.20;;
3006;SDS011;1513;47.650;10.720;2023-07-28T03:56:01;1.87;;;1.73;;
3006;SDS011;1513;47.650;10.720;2023-07-28T03:58:27;2.67;;;2.30;;
3006;SDS011;1513;47.650;10.720;2023-07-28T04:00:54;2.70;;;2.30;;
3006;SDS011;1513;47.650;10.720;2023-07-28T04:03:21;4.83;;;2.50;;
3006;SDS011;1513;47.650;10.720;2023-07-28T04:05:47;2.33;;;2.03;;
3006;SDS011;1513;47.650;10.720;2023-07-28T04:08:14;2.87;;;2.40;;
3006;SDS011;1513;47.650;10.720;2023-07-28T04:10:40;3.93;;;3.10;;
3006;SDS011;1513;47.650;10.720;2023-07-28T04:13:06;2.83;;;2.30;;
3006;SDS011;1513;47.650;10.720;2023-07-28T04:15:33;3.20;;;2.00;;
3006;SDS011;1513;47.650;10.720;2023-07-28T04:18:00;2.47;;;2.00;;
3006;SDS011;1513;47.650;10.720;2023-07-28T04:20:26;2.70;;;2.20;;
3006;SDS011;1513;47.650;10.720;2023-07-28T04:22:53;2.67;;;2.43;;
3006;SDS011;1513;47.650;10.720;2023-07-28T04:25:19;2.73;;;2.40;;
3006;SDS011;1513;47.650;10.720;2023-07-28T04:27:47;3.50;;;2.60;;
3006;SDS011;1513;47.650;10.720;2023-07-28T04:30:14;4.87;;;3.27;;
3006;SDS011;1513;47.650;10.720;2023-07-28T04:32:40;3.97;;;3.30;;
3006;SDS011;1513;47.650;10.720;2023-07-28T04:35:13;6.00;;;4.33;;
3006;SDS011;1513;47.650;10.720;2023-07-28T04:37:48;7.03;;;4.57;;
3006;SDS011;1513;47.650;10.720;2023-07-28T04:40:22;6.10;;;3.80;;
3006;SDS011;1513;47.650;10.720;2023-07-28T04:42:48;4.93;;;3.87;;
3006;SDS011;1513;47.650;10.720;2023-07-28T04:45:18;5.53;;;4.17;;
3006;SDS011;1513;47.650;10.720;2023-07-28T04:47:44;7.40;;;4.37;;
3006;SDS011;1513;47.650;10.720;2023-07-28T04:50:12;6.60;;;3.27;;
3006;SDS011;1513;47.650;10.720;2023-07-28T04:53:16;5.77;;;3.77;;
3006;SDS011;1513;47.650;10.720;2023-07-28T04:56:01;5.67;;;3.40;;
3006;SDS011;1513;47.650;10.720;2023-07-28T04:58:29;5.20;;;2.87;;
3006;SDS011;1513;47.650;10.720;2023-07-28T05:00:59;2.93;;;2.30;;
3006;SDS011;1513;47.650;10.720;2023-07-28T05:03:26;2.57;;;2.23;;
3006;SDS011;1513;47.650;10.720;2023-07-28T05:05:59;2.67;;;1.97;;
3006;SDS011;1513;47.650;10.720;2023-07-28T05:08:28;4.13;;;2.40;;
3006;SDS011;1513;47.650;10.720;2023-07-28T05:10:56;4.67;;;2.40;;
3006;SDS011;1513;47.650;10.720;2023-07-28T05:13:22;3.80;;;2.33;;
3006;SDS011;1513;47.650;10.720;2023-07-28T05:15:53;2.40;;;2.20;;
3006;SDS011;1513;47.650;10.720;2023-07-28T05:18:38;3.63;;;2.40;;
3006;SDS011;1513;47.650;10.720;2023-07-28T05:21:26;3.17;;;2.40;;
3006;SDS011;1513;47.650;10.720;2023-07-28T05:23:52;5.10;;;3.20;;
3006;SDS011;1513;47.650;10.720;2023-07-28T05:26:19;6.37;;;2.70;;
3006;SDS011;1513;47.650;10.720;2023-07-28T05:28:45;4.07;;;2.60;;
3006;SDS011;1513;47.650;10.720;2023-07-28T05:31:12;4.83;;;2.57;;
3006;SDS011;1513;47.650;10.720;2023-07-28T05:33:40;5.33;;;3.10;;
3006;SDS011;1513;47.650;10.720;2023-07-28T05:36:07;2.30;;;2.10;;
3006;SDS011;1513;47.650;10.720;2023-07-28T05:38:33;3.83;;;2.87;;
3006;SDS011;1513;47.650;10.720;2023-07-28T05:41:00;3.53;;;2.47;;
3006;SDS011;1513;47.650;10.720;2023-07-28T05:43:28;3.13;;;2.67;;
3006;SDS011;1513;47.650;10.720;2023-07-28T05:45:57;2.90;;;2.57;;
3006;SDS011;1513;47.650;10.720;2023-07-28T05:48:26;2.73;;;2.30;;
3006;SDS011;1513;47.650;10.720;2023-07-28T05:50:52;3.10;;;2.37;;
3006;SDS011;1513;47.650;10.720;2023-07-28T05:53:22;3.43;;;2.63;;
3006;SDS011;1513;47.650;10.720;2023-07-28T05:55:52;3.47;;;2.47;;
3006;SDS011;1513;47.650;10.720;2023-07-28T05:58:19;3.43;;;3.10;;
3006;SDS011;1513;47.650;10.720;2023-07-28T06:00:46;2.57;;;2.20;;
3006;SDS011;1513;47.650;10.720;2023-07-28T06:03:33;2.70;;;2.10;;
3006;SDS011;1513;47.650;10.720;2023-07-28T06:06:07;6.87;;;2.30;;
3006;SDS011;1513;47.650;10.720;2023-07-28T06:08:34;2.47;;;2.20;;
3006;SDS011;1513;47.650;10.720;2023-07-28T06:11:03;4.23;;;2.20;;
3006;SDS011;1513;47.650;10.720;2023-07-28T06:13:30;2.90;;;2.50;;
3006;SDS011;1513;47.650;10.720;2023-07-28T06:15:57;3.83;;;2.47;;
3006;SDS011;1513;47.650;10.720;2023-07-28T06:18:24;2.73;;;2.30;;
3006;SDS011;1513;47.650;10.720;2023-07-28T06:21:02;4.13;;;2.27;;
3006;SDS011;1513;47.650;10.720;2023-07-28T06:23:28;2.10;;;2.00;;
3006;SDS011;1513;47.650;10.720;2023-07-28T06:25:56;2.53;;;2.33;;
3006;SDS011;1513;47.650;10.720;2023-07-28T06:28:22;5.60;;;1.90;;
3006;SDS011;1513;47.650;10.720;2023-07-28T06:30:55;2.30;;;2.10;;
3006;SDS011;1513;47.650;10.720;2023-07-28T06:33:24;5.40;;;2.00;;
3006;SDS011;1513;47.650;10.720;2023-07-28T06:35:50;2.63;;;2.10;;
3006;SDS011;1513;47.650;10.720;2023-07-28T06:38:17;2.30;;;2.10;;
3006;SDS011;1513;47.650;10.720;2023-07-28T06:40:44;2.83;;;2.30;;
3006;SDS011;1513;47.650;10.720;2023-07-28T06:43:10;5.00;;;1.90;;
3006;SDS011;1513;47.650;10.720;2023-07-28T06:45:37;2.03;;;1.93;;
3006;SDS011;1513;47.650;10.720;2023-07-28T06:48:04;2.20;;;2.07;;
3006;SDS011;1513;47.650;10.720;2023-07-28T06:50:30;2.00;;;1.90;;
3006;SDS011;1513;47.650;10.720;2023-07-28T06:52:57;2.50;;;2.30;;
3006;SDS011;1513;47.650;10.720;2023-07-28T06:55:25;3.23;;;2.60;;
3006;SDS011;1513;47.650;10.720;2023-07-28T06:57:51;2.30;;;2.10;;
3006;SDS011;1513;47.650;10.720;2023-07-28T07:00:18;2.43;;;2.23;;
3006;SDS011;1513;47.650;10.720;2023-07-28T07:02:44;3.40;;;1.90;;
3006;SDS011;1513;47.650;10.720;2023-07-28T07:05:11;1.80;;;1.70;;
3006;SDS011;1513;47.650;10.720;2023-07-28T07:07:38;2.10;;;2.00;;
3006;SDS011;1513;47.650;10.720;2023-07-28T07:10:06;2.33;;;2.13;;
3006;SDS011;1513;47.650;10.720;2023-07-28T07:12:34;2.05;;;1.77;;
3006;SDS011;1513;47.650;10.720;2023-07-28T07:15:01;2.08;;;1.98;;
3006;SDS011;1513;47.650;10.720;2023-07-28T07:17:27;2.15;;;2.05;;
3006;SDS011;1513;47.650;10.720;2023-07-28T07:19:54;2.17;;;2.08;;
3006;SDS011;1513;47.650;10.720;2023-07-28T07:22:20;2.58;;;1.90;;
3006;SDS011;1513;47.650;10.720;2023-07-28T07:24:46;2.35;;;2.15;;
3006;SDS011;1513;47.650;10.720;2023-07-28T07:27:13;4.85;;;2.90;;
3006;SDS011;1513;47.650;10.720;2023-07-28T07:29:39;10.27;;;2.58;;
3006;SDS011;1513;47.650;10.720;2023-07-28T07:32:06;2.20;;;2.00;;
3006;SDS011;1513;47.650;10.720;2023-07-28T07:34:33;6.28;;;1.98;;
3006;SDS011;1513;47.650;10.720;2023-07-28T07:36:59;2.75;;;2.00;;
3006;SDS011;1513;47.650;10.720;2023-07-28T07:39:26;2.30;;;2.10;;
3006;SDS011;1513;47.650;10.720;2023-07-28T07:41:53;2.40;;;2.20;;
3006;SDS011;1513;47.650;10.720;2023-07-28T07:44:19;2.45;;;2.25;;
3006;SDS011;1513;47.650;10.720;2023-07-28T07:46:46;2.40;;;2.05;;
3006;SDS011;1513;47.650;10.720;2023-07-28T07:49:12;2.92;;;2.25;;
3006;SDS011;1513;47.650;10.720;2023-07-28T07:51:38;2.22;;;2.13;;
3006;SDS011;1513;47.650;10.720;2023-07-28T07:54:05;3.30;;;3.00;;
3006;SDS011;1513;47.650;10.720;2023-07-28T07:56:31;2.75;;;2.30;;
3006;SDS011;1513;47.650;10.720;2023-07-28T07:58:57;2.65;;;2.17;;
3006;SDS011;1513;47.650;10.720;2023-07-28T08:01:24;2.30;;;2.08;;
3006;SDS011;1513;47.650;10.720;2023-07-28T08:03:50;3.78;;;2.20;;
3006;SDS011;1513;47.650;10.720;2023-07-28T08:06:16;2.88;;;2.17;;
3006;SDS011;1513;47.650;10.720;2023-07-28T08:08:43;2.50;;;2.30;;
3006;SDS011;1513;47.650;10.720;2023-07-28T08:11:09;5.10;;;2.93;;
3006;SDS011;1513;47.650;10.720;2023-07-28T08:13:36;4.20;;;3.47;;
3006;SDS011;1513;47.650;10.720;2023-07-28T08:16:02;2.77;;;2.57;;
3006;SDS011;1513;47.650;10.720;2023-07-28T08:18:29;3.87;;;3.27;;
3006;SDS011;1513;47.650;10.720;2023-07-28T08:20:55;3.43;;;3.13;;
3006;SDS011;1513;47.650;10.720;2023-07-28T08:23:21;2.90;;;2.63;;
3006;SDS011;1513;47.650;10.720;2023-07-28T08:25:47;2.87;;;2.67;;
3006;SDS011;1513;47.650;10.720;2023-07-28T08:28:14;2.87;;;2.60;;
3006;SDS011;1513;47.650;10.720;2023-07-28T08:30:40;2.50;;;2.30;;
3006;SDS011;1513;47.650;10.720;2023-07-28T08:33:06;3.10;;;2.80;;
3006;SDS011;1513;47.650;10.720;2023-07-28T08:35:32;2.87;;;2.67;;
3006;SDS011;1513;47.650;10.720;2023-07-28T08:37:59;3.17;;;2.87;;
3006;SDS011;1513;47.650;10.720;2023-07-28T08:40:25;3.83;;;3.10;;
3006;SDS011;1513;47.650;10.720;2023-07-28T08:42:53;3.03;;;2.73;;
3006;SDS011;1513;47.650;10.720;2023-07-28T08:45:19;4.90;;;3.07;;
3006;SDS011;1513;47.650;10.720;2023-07-28T08:47:45;4.83;;;2.47;;
3006;SDS011;1513;47.650;10.720;2023-07-28T08:50:12;3.90;;;2.70;;
3006;SDS011;1513;47.650;10.720;2023-07-28T08:52:38;3.20;;;2.90;;
3006;SDS011;1513;47.650;10.720;2023-07-28T08:55:04;4.10;;;2.93;;
3006;SDS011;1513;47.650;10.720;2023-07-28T08:57:31;3.00;;;2.60;;
3006;SDS011;1513;47.650;10.720;2023-07-28T08:59:58;7.93;;;3.33;;
3006;SDS011;1513;47.650;10.720;2023-07-28T09:02:24;5.00;;;3.03;;
3006;SDS011;1513;47.650;10.720;2023-07-28T09:04:50;3.20;;;2.90;;
3006;SDS011;1513;47.650;10.720;2023-07-28T09:07:16;2.57;;;2.37;;
3006;SDS011;1513;47.650;10.720;2023-07-28T09:09:44;5.83;;;2.77;;
3006;SDS011;1513;47.650;10.720;2023-07-28T09:12:11;2.93;;;2.73;;
3006;SDS011;1513;47.650;10.720;2023-07-28T09:14:38;4.73;;;2.57;;
3006;SDS011;1513;47.650;10.720;2023-07-28T09:17:11;2.60;;;2.40;;
3006;SDS011;1513;47.650;10.720;2023-07-28T09:19:54;2.87;;;2.30;;
3006;SDS011;1513;47.650;10.720;2023-07-28T09:22:21;3.10;;;2.40;;
3006;SDS011;1513;47.650;10.720;2023-07-28T09:24:48;2.87;;;2.67;;
3006;SDS011;1513;47.650;10.720;2023-07-28T09:27:27;2.50;;;2.30;;
3006;SDS011;1513;47.650;10.720;2023-07-28T09:29:55;2.50;;;2.30;;
3006;SDS011;1513;47.650;10.720;2023-07-28T09:32:31;3.90;;;2.73;;
3006;SDS011;1513;47.650;10.720;2023-07-28T09:35:11;3.40;;;2.67;;
3006;SDS011;1513;47.650;10.720;2023-07-28T09:37:39;3.07;;;2.77;;
3006;SDS011;1513;47.650;10.720;2023-07-28T09:40:10;3.53;;;3.03;;
3006;SDS011;1513;47.650;10.720;2023-07-28T09:42:38;5.53;;;3.03;;
3006;SDS011;1513;47.650;10.720;2023-07-28T09:45:05;3.23;;;3.03;;
3006;SDS011;1513;47.650;10.720;2023-07-28T09:47:33;2.97;;;2.77;;
3006;SDS011;1513;47.650;10.720;2023-07-28T09:50:02;3.63;;;2.93;;
3006;SDS011;1513;47.650;10.720;2023-07-28T09:52:34;3.33;;;2.77;;
3006;SDS011;1513;47.650;10.720;2023-07-28T09:55:07;4.73;;;2.93;;
3006;SDS011;1513;47.650;10.720;2023-07-28T09:57:38;5.50;;;2.73;;
3006;SDS011;1513;47.650;10.720;2023-07-28T10:00:10;3.10;;;2.80;;
3006;SDS011;1513;47.650;10.720;2023-07-28T10:02:38;3.53;;;3.23;;
3006;SDS011;1513;47.650;10.720;2023-07-28T10:05:05;2.87;;;2.60;;
3006;SDS011;1513;47.650;10.720;2023-07-28T10:07:36;3.73;;;2.93;;
3006;SDS011;1513;47.650;10.720;2023-07-28T10:10:07;7.23;;;3.17;;
3006;SDS011;1513;47.650;10.720;2023-07-28T10:12:50;3.03;;;2.73;;
3006;SDS011;1513;47.650;10.720;2023-07-28T10:15:18;3.40;;;3.10;;
3006;SDS011;1513;47.650;10.720;2023-07-28T10:17:54;4.30;;;3.00;;
3006;SDS011;1513;47.650;10.720;2023-07-28T10:20:27;4.40;;;3.30;;
3006;SDS011;1513;47.650;10.720;2023-07-28T10:23:05;2.90;;;2.70;;
3006;SDS011;1513;47.650;10.720;2023-07-28T10:25:33;3.80;;;2.90;;
3006;SDS011;1513;47.650;10.720;2023-07-28T10:28:00;3.20;;;2.90;;
3006;SDS011;1513;47.650;10.720;2023-07-28T10:30:27;5.20;;;2.87;;
3006;SDS011;1513;47.650;10.720;2023-07-28T10:32:54;4.30;;;2.90;;
3006;SDS011;1513;47.650;10.720;2023-07-28T10:35:27;3.13;;;2.83;;
3006;SDS011;1513;47.650;10.720;2023-07-28T10:37:56;3.40;;;3.10;;
3006;SDS011;1513;47.650;10.720;2023-07-28T10:42:57;5.43;;;3.03;;
3006;SDS011;1513;47.650;10.720;2023-07-28T10:45:27;3.43;;;3.13;;
3006;SDS011;1513;47.650;10.720;2023-07-28T10:47:54;4.00;;;3.30;;
3006;SDS011;1513;47.650;10.720;2023-07-28T10:50:22;2.93;;;2.67;;
3006;SDS011;1513;47.650;10.720;2023-07-28T10:52:49;3.73;;;3.13;;
3006;SDS011;1513;47.650;10.720;2023-07-28T10:55:17;4.70;;;3.53;;
3006;SDS011;1513;47.650;10.720;2023-07-28T10:57:48;3.93;;;3.10;;
3006;SDS011;1513;47.650;10.720;2023-07-28T11:00:16;5.53;;;3.93;;
3006;SDS011;1513;47.650;10.720;2023-07-28T11:02:44;5.53;;;3.27;;
3006;SDS011;1513;47.650;10.720;2023-07-28T11:05:12;4.57;;;3.27;;
3006;SDS011;1513;47.650;10.720;2023-07-28T11:07:45;3.93;;;2.70;;
3006;SDS011;1513;47.650;10.720;2023-07-28T11:10:11;3.90;;;3.10;;
3006;SDS011;1513;47.650;10.720;2023-07-28T11:12:39;4.83;;;3.10;;
3006;SDS011;1513;47.650;10.720;2023-07-28T11:15:09;3.97;;;2.97;;
3006;SDS011;1513;47.650;10.720;2023-07-28T11:17:37;6.70;;;3.93;;
3006;SDS011;1513;47.650;10.720;2023-07-28T11:20:05;3.40;;;2.87;;
3006;SDS011;1513;47.650;10.720;2023-07-28T11:22:53;3.60;;;3.13;;
3006;SDS011;1513;47.650;10.720;2023-07-28T11:25:22;3.47;;;3.07;;
3006;SDS011;1513;47.650;10.720;2023-07-28T11:27:49;4.13;;;3.00;;
3006;SDS011;1513;47.650;10.720;2023-07-28T11:30:16;4.77;;;3.57;;
3006;SDS011;1513;47.650;10.720;2023-07-28T11:32:44;4.23;;;3.33;;
3006;SDS011;1513;47.650;10.720;2023-07-28T11:35:15;3.80;;;3.37;;
3006;SDS011;1513;47.650;10.720;2023-07-28T11:37:43;10.17;;;5.23;;
3006;SDS011;1513;47.650;10.720;2023-07-28T11:40:11;17.43;;;9.87;;
3006;SDS011;1513;47.650;10.720;2023-07-28T11:42:47;6.40;;;4.90;;
3006;SDS011;1513;47.650;10.720;2023-07-28T11:45:15;8.27;;;5.40;;
3006;SDS011;1513;47.650;10.720;2023-07-28T11:48:03;12.63;;;9.10;;
3006;SDS011;1513;47.650;10.720;2023-07-28T11:50:40;11.53;;;7.57;;
3006;SDS011;1513;47.650;10.720;2023-07-28T11:53:07;6.47;;;5.50;;
3006;SDS011;1513;47.650;10.720;2023-07-28T11:55:35;5.80;;;4.50;;
3006;SDS011;1513;47.650;10.720;2023-07-28T11:58:02;7.87;;;3.97;;
3006;SDS011;1513;47.650;10.720;2023-07-28T12:00:36;14.47;;;9.60;;
3006;SDS011;1513;47.650;10.720;2023-07-28T12:03:06;7.30;;;6.00;;
3006;SDS011;1513;47.650;10.720;2023-07-28T12:05:41;7.53;;;5.80;;
3006;SDS011;1513;47.650;10.720;2023-07-28T12:08:35;6.03;;;3.20;;
3006;SDS011;1513;47.650;10.720;2023-07-28T12:11:02;6.97;;;5.47;;
3006;SDS011;1513;47.650;10.720;2023-07-28T12:13:28;9.23;;;3.00;;
3006;SDS011;1513;47.650;10.720;2023-07-28T12:15:55;3.90;;;3.43;;
3006;SDS011;1513;47.650;10.720;2023-07-28T12:18:21;3.80;;;3.27;;
3006;SDS011;1513;47.650;10.720;2023-07-28T12:20:49;3.77;;;2.80;;
3006;SDS011;1513;47.650;10.720;2023-07-28T12:23:20;3.67;;;3.20;;
3006;SDS011;1513;47.650;10.720;2023-07-28T12:25:48;3.50;;;3.17;;
3006;SDS011;1513;47.650;10.720;2023-07-28T12:28:20;4.80;;;3.23;;
3006;SDS011;1513;47.650;10.720;2023-07-28T12:30:47;2.87;;;2.63;;
3006;SDS011;1513;47.650;10.720;2023-07-28T12:33:17;3.80;;;3.23;;
3006;SDS011;1513;47.650;10.720;2023-07-28T12:35:44;3.30;;;3.00;;
3006;SDS011;1513;47.650;10.720;2023-07-28T12:38:10;3.80;;;2.97;;
3006;SDS011;1513;47.650;10.720;2023-07-28T12:40:37;3.73;;;3.10;;
3006;SDS011;1513;47.650;10.720;2023-07-28T12:43:03;8.50;;;5.80;;
3006;SDS011;1513;47.650;10.720;2023-07-28T12:45:30;20.37;;;11.03;;
3006;SDS011;1513;47.650;10.720;2023-07-28T12:47:56;8.17;;;5.60;;
3006;SDS011;1513;47.650;10.720;2023-07-28T12:50:23;5.57;;;4.40;;
3006;SDS011;1513;47.650;10.720;2023-07-28T12:52:50;5.63;;;3.80;;
3006;SDS011;1513;47.650;10.720;2023-07-28T12:55:17;3.87;;;3.37;;
3006;SDS011;1513;47.650;10.720;2023-07-28T12:57:43;4.77;;;3.50;;
3006;SDS011;1513;47.650;10.720;2023-07-28T13:00:10;6.17;;;3.57;;
3006;SDS011;1513;47.650;10.720;2023-07-28T13:02:41;5.63;;;4.20;;
3006;SDS011;1513;47.650;10.720;2023-07-28T13:05:09;4.77;;;3.10;;
3006;SDS011;1513;47.650;10.720;2023-07-28T13:07:36;5.60;;;3.73;;
3006;SDS011;1513;47.650;10.720;2023-07-28T13:10:04;5.27;;;3.90;;
3006;SDS011;1513;47.650;10.720;2023-07-28T13:12:31;5.23;;;3.03;;
3006;SDS011;1513;47.650;10.720;2023-07-28T13:14:57;3.87;;;3.33;;
3006;SDS011;1513;47.650;10.720;2023-07-28T13:17:24;5.50;;;3.30;;
3006;SDS011;1513;47.650;10.720;2023-07-28T13:19:50;4.17;;;3.50;;
3006;SDS011;1513;47.650;10.720;2023-07-28T13:22:17;3.43;;;3.13;;
3006;SDS011;1513;47.650;10.720;2023-07-28T13:24:43;4.20;;;3.40;;
3006;SDS011;1513;47.650;10.720;2023-07-28T13:27:09;3.33;;;3.03;;
3006;SDS011;1513;47.650;10.720;2023-07-28T13:29:36;3.20;;;2.80;;
3006;SDS011;1513;47.650;10.720;2023-07-28T13:32:02;4.43;;;3.20;;
3006;SDS011;1513;47.650;10.720;2023-07-28T13:34:29;3.13;;;2.83;;
3006;SDS011;1513;47.650;10.720;2023-07-28T13:36:55;4.40;;;3.60;;
3006;SDS011;1513;47.650;10.720;2023-07-28T13:39:22;3.50;;;3.20;;
3006;SDS011;1513;47.650;10.720;2023-07-28T13:41:48;3.97;;;3.30;;
3006;SDS011;1513;47.650;10.720;2023-07-28T13:44:15;6.13;;;3.77;;
3006;SDS011;1513;47.650;10.720;2023-07-28T13:46:41;4.57;;;3.43;;
3006;SDS011;1513;47.650;10.720;2023-07-28T13:49:08;7.33;;;3.80;;
3006;SDS011;1513;47.650;10.720;2023-07-28T13:51:34;6.73;;;3.50;;
3006;SDS011;1513;47.650;10.720;2023-07-28T13:54:00;4.40;;;3.23;;
3006;SDS011;1513;47.650;10.720;2023-07-28T13:56:28;3.70;;;3.40;;
3006;SDS011;1513;47.650;10.720;2023-07-28T13:58:54;3.77;;;3.30;;
3006;SDS011;1513;47.650;10.720;2023-07-28T14:01:20;4.20;;;3.60;;
3006;SDS011;1513;47.650;10.720;2023-07-28T14:03:47;5.53;;;3.53;;
3006;SDS011;1513;47.650;10.720;2023-07-28T14:06:13;4.57;;;3.97;;
3006;SDS011;1513;47.650;10.720;2023-07-28T14:08:39;6.20;;;3.10;;
3006;SDS011;1513;47.650;10.720;2023-07-28T14:11:06;3.73;;;3.40;;
3006;SDS011;1513;47.650;10.720;2023-07-28T14:13:32;3.53;;;3.23;;
3006;SDS011;1513;47.650;10.720;2023-07-28T14:15:58;5.70;;;3.20;;
3006;SDS011;1513;47.650;10.720;2023-07-28T14:18:25;3.70;;;3.37;;
3006;SDS011;1513;47.650;10.720;2023-07-28T14:20:51;4.70;;;3.17;;
3006;SDS011;1513;47.650;10.720;2023-07-28T14:23:21;4.00;;;2.77;;
3006;SDS011;1513;47.650;10.720;2023-07-28T14:25:49;4.63;;;3.50;;
3006;SDS011;1513;47.650;10.720;2023-07-28T14:28:16;3.67;;;3.17;;
3006;SDS011;1513;47.650;10.720;2023-07-28T14:30:43;4.50;;;3.77;;
3006;SDS011;1513;47.650;10.720;2023-07-28T14:33:15;5.90;;;4.33;;
3006;SDS011;1513;47.650;10.720;2023-07-28T14:35:43;7.20;;;3.50;;
3006;SDS011;1513;47.650;10.720;2023-07-28T14:38:10;4.00;;;3.50;;
3006;SDS011;1513;47.650;10.720;2023-07-28T14:40:37;3.60;;;3.30;;
3006;SDS011;1513;47.650;10.720;2023-07-28T14:43:05;4.87;;;3.47;;
3006;SDS011;1513;47.650;10.720;2023-07-28T14:45:32;3.37;;;3.07;;
3006;SDS011;1513;47.650;10.720;2023-07-28T14:47:58;3.90;;;3.10;;
3006;SDS011;1513;47.650;10.720;2023-07-28T14:50:25;5.00;;;3.60;;
3006;SDS011;1513;47.650;10.720;2023-07-28T14:52:52;5.07;;;3.40;;
3006;SDS011;1513;47.650;10.720;2023-07-28T14:55:19;4.73;;;3.20;;
3006;SDS011;1513;47.650;10.720;2023-07-28T14:57:45;6.00;;;3.53;;
3006;SDS011;1513;47.650;10.720;2023-07-28T15:00:11;5.63;;;3.90;;
3006;SDS011;1513;47.650;10.720;2023-07-28T15:02:38;8.30;;;3.70;;
3006;SDS011;1513;47.650;10.720;2023-07-28T15:05:04;4.57;;;3.57;;
3006;SDS011;1513;47.650;10.720;2023-07-28T15:07:33;6.70;;;3.83;;
3006;SDS011;1513;47.650;10.720;2023-07-28T15:10:01;3.30;;;3.00;;